sensor_id;sensor_type;location;lat;lon;timestamp;pressure;altitude;pressure_sealevel;temperature;humidity
53940;BME280;39850;43.324;21.916;2022-09-03T00:15:12;993.0;;;16.5;87.0
53940;BME280;39850;43.324;21.916;2022-09-03T00:20:15;993.0;;;16.5;87.0
53940;BME280;39850;43.324;21.916;2022-09-03T00:25:08;993.0;;;16.9;87.0
53940;BME280;39850;43.324;21.916;2022-09-03T00:30:05;993.0;;;16.9;87.0
53940;BME280;39850;43.324;21.916;2022-09-03T00:35:04;993.0;;;16.5;87.0
53940;BME280;39850;43.324;21.916;2022-09-03T00:39:43;993.0;;;16.5;87.0
53940;BME280;39850;43.324;21.916;2022-09-03T00:45:20;993.0;;;16.8;87.0
53940;BME280;39850;43.324;21.916;2022-09-03T00:50:44;993.0;;;16.8;87.0
53940;BME280;39850;43.324;21.916;2022-09-03T00:56:14;993.0;;;16.4;87.0
53940;BME280;39850;43.324;21.916;2022-09-03T01:01:30;993.0;;;16.4;87.0
53940;BME280;39850;43.324;21.916;2022-09-03T01:35:39;993.0;;;16.4;88.0
53940;BME280;39850;43.324;21.916;2022-09-03T01:41:15;993.0;;;16.4;88.0
53940;BME280;39850;43.324;21.916;2022-09-03T01:46:29;993.0;;;16.7;88.0
53940;BME280;39850;43.324;21.916;2022-09-03T01:51:30;993.0;;;16.7;88.0
53940;BME280;39850;43.324;21.916;2022-09-03T01:57:27;993.0;;;17.0;88.0
53940;BME280;39850;43.324;21.916;2022-09-03T02:02:29;993.0;;;17.0;88.0
53940;BME280;39850;43.324;21.916;2022-09-03T02:07:06;993.0;;;17.0;88.0
53940;BME280;39850;43.324;21.916;2022-09-03T02:12:04;993.0;;;17.0;88.0
53940;BME280;39850;43.324;21.916;2022-09-03T02:17:04;993.0;;;17.0;88.0
53940;BME280;39850;43.324;21.916;2022-09-03T02:21:56;993.0;;;17.0;88.0
53940;BME280;39850;43.324;21.916;2022-09-03T02:54:45;993.0;;;17.3;88.0
53940;BME280;39850;43.324;21.916;2022-09-03T02:59:22;993.0;;;17.3;88.0
53940;BME280;39850;43.324;21.916;2022-09-03T03:03:59;993.0;;;17.3;88.0
53940;BME280;39850;43.324;21.916;2022-09-03T03:08:36;993.0;;;17.3;88.0
53940;BME280;39850;43.324;21.916;2022-09-03T03:13:14;993.0;;;17.3;88.0
53940;BME280;39850;43.324;21.916;2022-09-03T03:17:51;993.0;;;17.3;88.0
53940;BME280;39850;43.324;21.916;2022-09-03T03:22:27;993.0;;;17.3;88.0
53940;BME280;39850;43.324;21.916;2022-09-03T03:27:04;993.0;;;17.3;88.0
53940;BME280;39850;43.324;21.916;2022-09-03T03:31:40;993.0;;;17.3;88.0
53940;BME280;39850;43.324;21.916;2022-09-03T03:36:20;993.0;;;17.3;88.0
53940;BME280;39850;43.324;21.916;2022-09-03T03:41:07;993.0;;;17.3;88.0
53940;BME280;39850;43.324;21.916;2022-09-03T04:18:23;993.0;;;17.3;87.0
53940;BME280;39850;43.324;21.916;2022-09-03T04:23:02;993.0;;;17.3;87.0
53940;BME280;39850;43.324;21.916;2022-09-03T04:27:40;993.0;;;17.3;87.0
53940;BME280;39850;43.324;21.916;2022-09-03T04:32:17;993.0;;;17.3;87.0
53940;BME280;39850;43.324;21.916;2022-09-03T04:36:54;993.0;;;17.3;87.0
53940;BME280;39850;43.324;21.916;2022-09-03T04:41:31;993.0;;;17.3;87.0
53940;BME280;39850;43.324;21.916;2022-09-03T04:46:14;993.0;;;17.3;87.0
53940;BME280;39850;43.324;21.916;2022-09-03T04:50:51;993.0;;;17.3;87.0
53940;BME280;39850;43.324;21.916;2022-09-03T04:55:37;993.0;;;17.3;87.0
53940;BME280;39850;43.324;21.916;2022-09-03T05:00:15;993.0;;;17.3;87.0
53940;BME280;39850;43.324;21.916;2022-09-03T05:37:28;993.0;;;17.3;87.0
53940;BME280;39850;43.324;21.916;2022-09-03T05:42:05;993.0;;;17.3;87.0
53940;BME280;39850;43.324;21.916;2022-09-03T05:46:41;993.0;;;17.3;87.0
53940;BME280;39850;43.324;21.916;2022-09-03T05:51:19;993.0;;;17.3;87.0
53940;BME280;39850;43.324;21.916;2022-09-03T05:56:05;993.0;;;17.3;87.0
53940;BME280;39850;43.324;21.916;2022-09-03T06:00:42;993.0;;;17.3;87.0
53940;BME280;39850;43.324;21.916;2022-09-03T06:05:19;993.0;;;17.3;87.0
53940;BME280;39850;43.324;21.916;2022-09-03T06:09:56;993.0;;;17.3;87.0
53940;BME280;39850;43.324;21.916;2022-09-03T06:14:33;993.0;;;17.3;87.0
53940;BME280;39850;43.324;21.916;2022-09-03T06:19:12;993.0;;;17.3;87.0
53940;BME280;39850;43.324;21.916;2022-09-03T06:23:55;993.0;;;17.3;87.0
53940;BME280;39850;43.324;21.916;2022-09-03T06:56:25;993.0;;;17.1;85.0
53940;BME280;39850;43.324;21.916;2022-09-03T07:01:11;993.0;;;17.1;85.0
53940;BME280;39850;43.324;21.916;2022-09-03T07:05:50;993.0;;;17.2;85.0
53940;BME280;39850;43.324;21.916;2022-09-03T07:10:27;993.0;;;17.2;85.0
53940;BME280;39850;43.324;21.916;2022-09-03T07:15:09;993.0;;;17.3;85.0
53940;BME280;39850;43.324;21.916;2022-09-03T07:19:46;993.0;;;17.3;85.0
53940;BME280;39850;43.324;21.916;2022-09-03T07:24:23;993.0;;;17.3;85.0
53940;BME280;39850;43.324;21.916;2022-09-03T07:29:04;994.0;;;17.3;86.0
53940;BME280;39850;43.324;21.916;2022-09-03T07:33:43;994.0;;;17.3;86.0
53940;BME280;39850;43.324;21.916;2022-09-03T07:38:21;994.0;;;17.3;86.0
53940;BME280;39850;43.324;21.916;2022-09-03T07:42:58;994.0;;;17.3;86.0
53940;BME280;39850;43.324;21.916;2022-09-03T08:15:55;994.0;;;18.2;82.0
53940;BME280;39850;43.324;21.916;2022-09-03T08:20:32;994.0;;;18.2;82.0
53940;BME280;39850;43.324;21.916;2022-09-03T08:25:09;994.0;;;18.2;82.0
53940;BME280;39850;43.324;21.916;2022-09-03T08:29:46;994.0;;;18.2;82.0
53940;BME280;39850;43.324;21.916;2022-09-03T08:34:22;994.0;;;18.2;82.0
53940;BME280;39850;43.324;21.916;2022-09-03T08:39:09;994.0;;;18.2;82.0
53940;BME280;39850;43.324;21.916;2022-09-03T08:44:26;994.0;;;18.2;82.0
53940;BME280;39850;43.324;21.916;2022-09-03T08:49:22;994.0;;;18.6;81.0
53940;BME280;39850;43.324;21.916;2022-09-03T08:54:15;994.0;;;18.6;81.0
53940;BME280;39850;43.324;21.916;2022-09-03T08:58:56;994.0;;;19.0;80.0
53940;BME280;39850;43.324;21.916;2022-09-03T09:04:13;994.0;;;19.0;80.0
53940;BME280;39850;43.324;21.916;2022-09-03T09:39:17;994.0;;;19.6;74.0
53940;BME280;39850;43.324;21.916;2022-09-03T09:44:03;994.0;;;19.6;74.0
53940;BME280;39850;43.324;21.916;2022-09-03T09:48:57;994.0;;;19.2;75.0
53940;BME280;39850;43.324;21.916;2022-09-03T09:53:35;994.0;;;19.2;75.0
53940;BME280;39850;43.324;21.916;2022-09-03T09:58:13;994.0;;;19.0;76.0
53940;BME280;39850;43.324;21.916;2022-09-03T10:02:53;994.0;;;19.0;76.0
53940;BME280;39850;43.324;21.916;2022-09-03T10:07:32;994.0;;;19.0;77.0
53940;BME280;39850;43.324;21.916;2022-09-03T10:12:33;994.0;;;19.0;77.0
53940;BME280;39850;43.324;21.916;2022-09-03T10:17:53;994.0;;;19.0;77.0
53940;BME280;39850;43.324;21.916;2022-09-03T10:23:08;994.0;;;19.0;77.0
53940;BME280;39850;43.324;21.916;2022-09-03T11:00:18;994.0;;;20.0;74.0
53940;BME280;39850;43.324;21.916;2022-09-03T11:05:16;994.0;;;20.0;74.0
53940;BME280;39850;43.324;21.916;2022-09-03T11:10:23;994.0;;;20.0;75.0
53940;BME280;39850;43.324;21.916;2022-09-03T11:15:27;994.0;;;20.0;75.0
53940;BME280;39850;43.324;21.916;2022-09-03T11:20:23;994.0;;;20.0;75.0
53940;BME280;39850;43.324;21.916;2022-09-03T11:25:12;994.0;;;20.0;75.0
53940;BME280;39850;43.324;21.916;2022-09-03T11:30:10;994.0;;;20.0;75.0
53940;BME280;39850;43.324;21.916;2022-09-03T11:34:54;994.0;;;20.0;75.0
53940;BME280;39850;43.324;21.916;2022-09-03T11:39:39;994.0;;;20.0;75.0
53940;BME280;39850;43.324;21.916;2022-09-03T11:44:19;994.0;;;20.0;75.0
53940;BME280;39850;43.324;21.916;2022-09-03T12:19:58;994.0;;;20.4;72.0
53940;BME280;39850;43.324;21.916;2022-09-03T12:24:35;994.0;;;20.4;72.0
53940;BME280;39850;43.324;21.916;2022-09-03T12:29:31;994.0;;;20.6;72.0
53940;BME280;39850;43.324;21.916;2022-09-03T12:34:19;994.0;;;20.6;72.0
53940;BME280;39850;43.324;21.916;2022-09-03T12:39:09;994.0;;;20.8;72.0
53940;BME280;39850;43.324;21.916;2022-09-03T12:43:58;994.0;;;20.8;72.0
53940;BME280;39850;43.324;21.916;2022-09-03T12:48:35;994.0;;;20.8;71.0
53940;BME280;39850;43.324;21.916;2022-09-03T12:53:29;994.0;;;20.8;71.0
53940;BME280;39850;43.324;21.916;2022-09-03T12:58:24;994.0;;;20.8;71.0
53940;BME280;39850;43.324;21.916;2022-09-03T13:03:43;994.0;;;20.8;71.0
53940;BME280;39850;43.324;21.916;2022-09-03T13:39:56;993.0;;;21.8;68.0
53940;BME280;39850;43.324;21.916;2022-09-03T13:44:59;993.0;;;21.8;68.0
53940;BME280;39850;43.324;21.916;2022-09-03T13:50:03;993.0;;;21.6;68.0
53940;BME280;39850;43.324;21.916;2022-09-03T13:55:08;993.0;;;21.6;68.0
53940;BME280;39850;43.324;21.916;2022-09-03T14:00:05;993.0;;;21.7;68.0
53940;BME280;39850;43.324;21.916;2022-09-03T14:05:16;993.0;;;21.7;68.0
53940;BME280;39850;43.324;21.916;2022-09-03T14:10:27;993.0;;;21.5;68.0
53940;BME280;39850;43.324;21.916;2022-09-03T14:15:42;993.0;;;21.5;68.0
53940;BME280;39850;43.324;21.916;2022-09-03T14:20:46;993.0;;;21.7;68.0
53940;BME280;39850;43.324;21.916;2022-09-03T14:25:35;993.0;;;21.7;68.0
53940;BME280;39850;43.324;21.916;2022-09-03T15:00:02;993.0;;;20.8;69.0
53940;BME280;39850;43.324;21.916;2022-09-03T15:05:53;993.0;;;20.8;69.0
53940;BME280;39850;43.324;21.916;2022-09-03T15:11:00;993.0;;;20.8;69.0
53940;BME280;39850;43.324;21.916;2022-09-03T15:16:49;993.0;;;20.8;69.0
53940;BME280;39850;43.324;21.916;2022-09-03T15:22:43;993.0;;;20.8;69.0
53940;BME280;39850;43.324;21.916;2022-09-03T15:28:37;993.0;;;20.8;69.0
53940;BME280;39850;43.324;21.916;2022-09-03T15:34:14;993.0;;;20.8;69.0
53940;BME280;39850;43.324;21.916;2022-09-03T15:39:35;993.0;;;20.9;68.0
53940;BME280;39850;43.324;21.916;2022-09-03T15:44:20;993.0;;;20.9;68.0
53940;BME280;39850;43.324;21.916;2022-09-03T16:20:25;993.0;;;20.9;71.0
53940;BME280;39850;43.324;21.916;2022-09-03T16:25:23;993.0;;;20.9;71.0
53940;BME280;39850;43.324;21.916;2022-09-03T16:30:36;993.0;;;20.8;71.0
53940;BME280;39850;43.324;21.916;2022-09-03T16:36:00;993.0;;;20.8;71.0
53940;BME280;39850;43.324;21.916;2022-09-03T16:41:17;993.0;;;20.8;71.0
53940;BME280;39850;43.324;21.916;2022-09-03T16:46:35;993.0;;;20.8;70.0
53940;BME280;39850;43.324;21.916;2022-09-03T16:51:51;993.0;;;20.8;70.0
53940;BME280;39850;43.324;21.916;2022-09-03T16:57:20;993.0;;;20.8;70.0
53940;BME280;39850;43.324;21.916;2022-09-03T17:05:35;993.0;;;20.8;70.0
53940;BME280;39850;43.324;21.916;2022-09-03T17:40:20;993.0;;;19.8;73.0
53940;BME280;39850;43.324;21.916;2022-09-03T17:45:55;993.0;;;19.8;73.0
53940;BME280;39850;43.324;21.916;2022-09-03T17:51:26;993.0;;;19.8;74.0
53940;BME280;39850;43.324;21.916;2022-09-03T17:56:45;993.0;;;19.8;74.0
53940;BME280;39850;43.324;21.916;2022-09-03T18:02:04;993.0;;;19.9;74.0
53940;BME280;39850;43.324;21.916;2022-09-03T18:07:39;993.0;;;20.0;74.0
53940;BME280;39850;43.324;21.916;2022-09-03T18:13:09;993.0;;;20.0;74.0
53940;BME280;39850;43.324;21.916;2022-09-03T18:18:28;993.0;;;20.0;75.0
53940;BME280;39850;43.324;21.916;2022-09-03T18:23:49;993.0;;;20.0;75.0
53940;BME280;39850;43.324;21.916;2022-09-03T19:00:14;994.0;;;19.1;81.0
53940;BME280;39850;43.324;21.916;2022-09-03T19:05:33;994.0;;;19.1;81.0
53940;BME280;39850;43.324;21.916;2022-09-03T19:10:43;994.0;;;18.6;81.0
53940;BME280;39850;43.324;21.916;2022-09-03T19:15:51;994.0;;;18.6;81.0
53940;BME280;39850;43.324;21.916;2022-09-03T19:20:49;994.0;;;18.6;81.0
53940;BME280;39850;43.324;21.916;2022-09-03T19:25:31;994.0;;;18.6;81.0
53940;BME280;39850;43.324;21.916;2022-09-03T19:30:29;994.0;;;18.0;82.0
53940;BME280;39850;43.324;21.916;2022-09-03T19:36:00;994.0;;;18.0;82.0
53940;BME280;39850;43.324;21.916;2022-09-03T20:20:43;994.0;;;17.2;86.0
53940;BME280;39850;43.324;21.916;2022-09-03T20:26:45;994.0;;;17.2;86.0
53940;BME280;39850;43.324;21.916;2022-09-03T20:32:25;994.0;;;17.0;87.0
53940;BME280;39850;43.324;21.916;2022-09-03T20:37:42;994.0;;;16.7;88.0
53940;BME280;39850;43.324;21.916;2022-09-03T20:44:03;994.0;;;16.7;88.0
53940;BME280;39850;43.324;21.916;2022-09-03T20:49:51;994.0;;;16.4;89.0
53940;BME280;39850;43.324;21.916;2022-09-03T20:55:13;994.0;;;16.4;89.0
53940;BME280;39850;43.324;21.916;2022-09-03T21:00:17;994.0;;;16.2;90.0
53940;BME280;39850;43.324;21.916;2022-09-03T21:05:30;994.0;;;16.2;90.0
53940;BME280;39850;43.324;21.916;2022-09-03T21:41:42;994.0;;;15.3;92.0
53940;BME280;39850;43.324;21.916;2022-09-03T21:46:41;994.0;;;15.3;92.0
53940;BME280;39850;43.324;21.916;2022-09-03T21:51:41;994.0;;;15.3;92.0
53940;BME280;39850;43.324;21.916;2022-09-03T21:57:12;994.0;;;15.3;92.0
53940;BME280;39850;43.324;21.916;2022-09-03T22:02:22;995.0;;;15.3;92.0
53940;BME280;39850;43.324;21.916;2022-09-03T22:07:37;995.0;;;15.3;92.0
53940;BME280;39850;43.324;21.916;2022-09-03T22:13:15;995.0;;;15.3;92.0
53940;BME280;39850;43.324;21.916;2022-09-03T22:18:25;995.0;;;15.3;92.0
53940;BME280;39850;43.324;21.916;2022-09-03T22:23:28;995.0;;;15.3;92.0
53940;BME280;39850;43.324;21.916;2022-09-03T23:00:12;995.0;;;16.4;90.0
53940;BME280;39850;43.324;21.916;2022-09-03T23:05:50;995.0;;;16.4;90.0
53940;BME280;39850;43.324;21.916;2022-09-03T23:11:08;995.0;;;16.4;90.0
53940;BME280;39850;43.324;21.916;2022-09-03T23:16:38;995.0;;;16.4;90.0
53940;BME280;39850;43.324;21.916;2022-09-03T23:21:44;995.0;;;16.4;90.0
53940;BME280;39850;43.324;21.916;2022-09-03T23:26:48;995.0;;;16.4;90.0
53940;BME280;39850;43.324;21.916;2022-09-03T23:31:27;995.0;;;15.8;90.0
53940;BME280;39850;43.324;21.916;2022-09-03T23:36:54;995.0;;;15.8;90.0
53940;BME280;39850;43.324;21.916;2022-09-03T23:42:46;995.0;;;15.3;90.0
